Main page
METAR-TAF:

METAR-TAF

Airports :

Luis Muñoz Marín International Airport

San Juan, Puerto Rico, United States

latitude: 18-27N, longitude: 066-00W, elevation: 3 m

Current weather observation

The report was made 44 minutes ago, at 04:56 UTC
Calm wind
Temperature 27°C
Humidity 79%
Pressure 1017 hPa
Visibility: 16.1 km
Clear sky

METAR: TJSJ 060456Z 00000KT 10SM CLR 27/23 A3003 RMK AO2 SLP169 T02720233

Time: 01:40 (05:40 UTC)

Forecast

The report was made 20 minutes ago, at 05:20 UTC
Forecast valid from 06 at 06 UTC to 07 at 06 UTC
Wind 4 kt from the East
Visibility: 10 km
Few clouds at a height of 3500 ft
From 06 at 1500 UTC
Wind 13 kt from the East/Northeast
Visibility: 10 km
Few clouds at a height of 3000 ft
From 06 at 2200 UTC
Wind 12 kt from the East
Visibility: 10 km
Few clouds at a height of 3500 ft
Scattered clouds at a height of 5000 ft

TAF: TJSJ 060520Z 0606/0706 10004KT P6SM FEW035 FM061500 06013KT P6SM FEW030 FM062200 09012KT P6SM FEW035 SCT050

Weather observations and forecasts of more than 4000 airports (METAR and TAF reports).

The available stations are represented by yellow and red dots on the map.

Hover mouse over dot to see the name of the station.

Then click to see weather observations and forecasts.

To change the map : click on the green buttons with a black cross to zoom in, on the green button with a dash to zoom out, or on the green arrows for adjacent maps.


METAR-TAF: